sensor_id;sensor_type;location;lat;lon;timestamp;P1;durP1;ratioP1;P2;durP2;ratioP2
49840;SDS011;35738;49.890;5.930;2023-05-19T00:02:11;9.80;;;4.47;;
49840;SDS011;35738;49.890;5.930;2023-05-19T00:04:38;10.85;;;4.85;;
49840;SDS011;35738;49.890;5.930;2023-05-19T00:07:06;14.18;;;5.10;;
49840;SDS011;35738;49.890;5.930;2023-05-19T00:09:36;12.40;;;4.53;;
49840;SDS011;35738;49.890;5.930;2023-05-19T00:12:03;7.97;;;4.40;;
49840;SDS011;35738;49.890;5.930;2023-05-19T00:14:30;9.10;;;4.25;;
49840;SDS011;35738;49.890;5.930;2023-05-19T00:16:57;9.35;;;4.60;;
49840;SDS011;35738;49.890;5.930;2023-05-19T00:19:27;10.15;;;4.68;;
49840;SDS011;35738;49.890;5.930;2023-05-19T00:21:57;8.25;;;4.57;;
49840;SDS011;35738;49.890;5.930;2023-05-19T00:24:24;9.27;;;4.80;;
49840;SDS011;35738;49.890;5.930;2023-05-19T00:26:51;8.38;;;4.85;;
49840;SDS011;35738;49.890;5.930;2023-05-19T00:29:17;11.38;;;4.70;;
49840;SDS011;35738;49.890;5.930;2023-05-19T00:31:44;10.27;;;4.82;;
49840;SDS011;35738;49.890;5.930;2023-05-19T00:34:11;9.63;;;4.57;;
49840;SDS011;35738;49.890;5.930;2023-05-19T00:36:38;9.48;;;4.68;;
49840;SDS011;35738;49.890;5.930;2023-05-19T00:39:04;10.65;;;5.13;;
49840;SDS011;35738;49.890;5.930;2023-05-19T00:41:31;10.32;;;4.80;;
49840;SDS011;35738;49.890;5.930;2023-05-19T00:43:58;8.05;;;4.70;;
49840;SDS011;35738;49.890;5.930;2023-05-19T00:46:25;10.32;;;5.00;;
49840;SDS011;35738;49.890;5.930;2023-05-19T00:48:51;10.05;;;4.72;;
49840;SDS011;35738;49.890;5.930;2023-05-19T00:51:18;9.77;;;4.60;;
49840;SDS011;35738;49.890;5.930;2023-05-19T00:53:45;9.07;;;4.78;;
49840;SDS011;35738;49.890;5.930;2023-05-19T00:56:14;14.73;;;4.88;;
49840;SDS011;35738;49.890;5.930;2023-05-19T00:58:42;10.07;;;4.22;;
49840;SDS011;35738;49.890;5.930;2023-05-19T01:01:09;9.18;;;4.53;;
49840;SDS011;35738;49.890;5.930;2023-05-19T01:03:37;9.80;;;4.38;;
49840;SDS011;35738;49.890;5.930;2023-05-19T01:06:05;10.48;;;4.10;;
49840;SDS011;35738;49.890;5.930;2023-05-19T01:08:33;10.38;;;4.55;;
49840;SDS011;35738;49.890;5.930;2023-05-19T01:11:00;7.15;;;4.22;;
49840;SDS011;35738;49.890;5.930;2023-05-19T01:13:28;7.68;;;4.65;;
49840;SDS011;35738;49.890;5.930;2023-05-19T01:15:57;8.80;;;4.60;;
49840;SDS011;35738;49.890;5.930;2023-05-19T01:18:34;5.57;;;4.45;;
49840;SDS011;35738;49.890;5.930;2023-05-19T01:32:06;10.68;;;4.72;;
49840;SDS011;35738;49.890;5.930;2023-05-19T01:34:38;11.00;;;4.57;;
49840;SDS011;35738;49.890;5.930;2023-05-19T01:37:07;7.75;;;4.47;;
49840;SDS011;35738;49.890;5.930;2023-05-19T01:39:35;7.50;;;4.45;;
49840;SDS011;35738;49.890;5.930;2023-05-19T01:42:02;11.85;;;4.63;;
49840;SDS011;35738;49.890;5.930;2023-05-19T01:44:30;6.80;;;4.75;;
49840;SDS011;35738;49.890;5.930;2023-05-19T01:46:58;6.95;;;4.20;;
49840;SDS011;35738;49.890;5.930;2023-05-19T01:49:25;9.35;;;4.50;;
49840;SDS011;35738;49.890;5.930;2023-05-19T01:51:51;7.07;;;4.20;;
49840;SDS011;35738;49.890;5.930;2023-05-19T01:54:18;13.32;;;4.60;;
49840;SDS011;35738;49.890;5.930;2023-05-19T01:56:51;10.20;;;4.80;;
49840;SDS011;35738;49.890;5.930;2023-05-19T02:00:03;11.13;;;4.20;;
49840;SDS011;35738;49.890;5.930;2023-05-19T02:06:09;8.60;;;4.32;;
49840;SDS011;35738;49.890;5.930;2023-05-19T02:08:52;9.20;;;4.43;;
49840;SDS011;35738;49.890;5.930;2023-05-19T02:11:35;9.75;;;4.10;;
49840;SDS011;35738;49.890;5.930;2023-05-19T02:14:07;9.30;;;4.22;;
49840;SDS011;35738;49.890;5.930;2023-05-19T02:16:42;10.02;;;4.30;;
49840;SDS011;35738;49.890;5.930;2023-05-19T02:19:21;8.27;;;4.22;;
49840;SDS011;35738;49.890;5.930;2023-05-19T02:21:50;7.75;;;4.32;;
49840;SDS011;35738;49.890;5.930;2023-05-19T02:24:17;10.23;;;4.47;;
49840;SDS011;35738;49.890;5.930;2023-05-19T02:26:49;14.77;;;4.75;;
49840;SDS011;35738;49.890;5.930;2023-05-19T02:29:17;7.05;;;4.22;;
49840;SDS011;35738;49.890;5.930;2023-05-19T02:31:44;9.00;;;4.10;;
49840;SDS011;35738;49.890;5.930;2023-05-19T02:34:11;6.53;;;4.05;;
49840;SDS011;35738;49.890;5.930;2023-05-19T02:36:38;6.25;;;3.72;;
49840;SDS011;35738;49.890;5.930;2023-05-19T02:39:06;7.50;;;4.25;;
49840;SDS011;35738;49.890;5.930;2023-05-19T02:41:33;6.20;;;3.88;;
49840;SDS011;35738;49.890;5.930;2023-05-19T02:44:00;7.38;;;4.57;;
49840;SDS011;35738;49.890;5.930;2023-05-19T02:46:28;7.80;;;4.65;;
49840;SDS011;35738;49.890;5.930;2023-05-19T02:48:54;10.13;;;4.50;;
49840;SDS011;35738;49.890;5.930;2023-05-19T02:51:21;11.35;;;4.32;;
49840;SDS011;35738;49.890;5.930;2023-05-19T02:53:47;9.07;;;4.32;;
49840;SDS011;35738;49.890;5.930;2023-05-19T02:56:15;10.10;;;3.97;;
49840;SDS011;35738;49.890;5.930;2023-05-19T02:58:42;11.00;;;4.15;;
49840;SDS011;35738;49.890;5.930;2023-05-19T03:01:08;7.50;;;3.75;;
49840;SDS011;35738;49.890;5.930;2023-05-19T03:03:36;7.93;;;3.90;;
49840;SDS011;35738;49.890;5.930;2023-05-19T03:06:03;7.22;;;3.92;;
49840;SDS011;35738;49.890;5.930;2023-05-19T03:08:30;8.70;;;4.00;;
49840;SDS011;35738;49.890;5.930;2023-05-19T03:10:56;10.48;;;4.40;;
49840;SDS011;35738;49.890;5.930;2023-05-19T03:13:23;10.40;;;3.88;;
49840;SDS011;35738;49.890;5.930;2023-05-19T03:15:50;7.63;;;4.03;;
49840;SDS011;35738;49.890;5.930;2023-05-19T03:18:16;6.20;;;3.90;;
49840;SDS011;35738;49.890;5.930;2023-05-19T03:20:43;6.32;;;3.70;;
49840;SDS011;35738;49.890;5.930;2023-05-19T03:23:10;6.38;;;3.92;;
49840;SDS011;35738;49.890;5.930;2023-05-19T03:25:37;8.80;;;4.25;;
49840;SDS011;35738;49.890;5.930;2023-05-19T03:28:03;8.60;;;3.95;;
49840;SDS011;35738;49.890;5.930;2023-05-19T03:30:30;7.90;;;4.10;;
49840;SDS011;35738;49.890;5.930;2023-05-19T03:32:57;6.95;;;3.72;;
49840;SDS011;35738;49.890;5.930;2023-05-19T03:35:27;10.20;;;3.63;;
49840;SDS011;35738;49.890;5.930;2023-05-19T03:37:53;10.88;;;3.83;;
49840;SDS011;35738;49.890;5.930;2023-05-19T03:40:20;9.65;;;3.72;;
49840;SDS011;35738;49.890;5.930;2023-05-19T03:42:47;7.65;;;3.92;;
49840;SDS011;35738;49.890;5.930;2023-05-19T03:45:13;9.33;;;3.67;;
49840;SDS011;35738;49.890;5.930;2023-05-19T03:47:40;6.75;;;3.53;;
49840;SDS011;35738;49.890;5.930;2023-05-19T03:50:07;8.82;;;3.70;;
49840;SDS011;35738;49.890;5.930;2023-05-19T03:52:34;7.03;;;3.53;;
49840;SDS011;35738;49.890;5.930;2023-05-19T03:55:03;11.05;;;3.67;;
49840;SDS011;35738;49.890;5.930;2023-05-19T03:57:31;7.28;;;3.72;;
49840;SDS011;35738;49.890;5.930;2023-05-19T03:59:59;8.52;;;4.03;;
49840;SDS011;35738;49.890;5.930;2023-05-19T04:02:25;8.75;;;3.70;;
49840;SDS011;35738;49.890;5.930;2023-05-19T04:04:52;5.80;;;3.47;;
49840;SDS011;35738;49.890;5.930;2023-05-19T04:07:19;6.25;;;3.60;;
49840;SDS011;35738;49.890;5.930;2023-05-19T04:09:45;6.13;;;3.45;;
49840;SDS011;35738;49.890;5.930;2023-05-19T04:12:13;9.80;;;3.72;;
49840;SDS011;35738;49.890;5.930;2023-05-19T04:14:40;8.48;;;3.90;;
49840;SDS011;35738;49.890;5.930;2023-05-19T04:17:07;7.57;;;3.22;;
49840;SDS011;35738;49.890;5.930;2023-05-19T04:19:34;8.00;;;3.70;;
49840;SDS011;35738;49.890;5.930;2023-05-19T04:22:00;10.10;;;3.38;;
49840;SDS011;35738;49.890;5.930;2023-05-19T04:24:27;5.88;;;3.25;;
49840;SDS011;35738;49.890;5.930;2023-05-19T04:26:54;8.05;;;3.03;;
49840;SDS011;35738;49.890;5.930;2023-05-19T04:29:21;5.95;;;3.03;;
49840;SDS011;35738;49.890;5.930;2023-05-19T04:31:49;9.43;;;3.42;;
49840;SDS011;35738;49.890;5.930;2023-05-19T04:34:15;9.43;;;3.20;;
49840;SDS011;35738;49.890;5.930;2023-05-19T04:36:45;7.97;;;3.08;;
49840;SDS011;35738;49.890;5.930;2023-05-19T04:39:12;7.93;;;3.58;;
49840;SDS011;35738;49.890;5.930;2023-05-19T04:41:39;6.45;;;3.38;;
49840;SDS011;35738;49.890;5.930;2023-05-19T04:44:15;7.93;;;2.97;;
49840;SDS011;35738;49.890;5.930;2023-05-19T04:46:43;7.28;;;3.28;;
49840;SDS011;35738;49.890;5.930;2023-05-19T04:49:10;8.52;;;3.00;;
49840;SDS011;35738;49.890;5.930;2023-05-19T04:51:40;5.40;;;3.20;;
49840;SDS011;35738;49.890;5.930;2023-05-19T04:54:07;8.27;;;3.20;;
49840;SDS011;35738;49.890;5.930;2023-05-19T04:56:35;6.53;;;3.03;;
49840;SDS011;35738;49.890;5.930;2023-05-19T04:59:02;9.80;;;4.05;;
49840;SDS011;35738;49.890;5.930;2023-05-19T05:01:28;6.75;;;3.33;;
49840;SDS011;35738;49.890;5.930;2023-05-19T05:03:56;6.65;;;3.15;;
49840;SDS011;35738;49.890;5.930;2023-05-19T05:06:24;6.40;;;2.65;;
49840;SDS011;35738;49.890;5.930;2023-05-19T05:08:51;6.97;;;2.85;;
49840;SDS011;35738;49.890;5.930;2023-05-19T05:11:18;4.75;;;3.05;;
49840;SDS011;35738;49.890;5.930;2023-05-19T05:13:45;7.30;;;2.90;;
49840;SDS011;35738;49.890;5.930;2023-05-19T05:16:12;5.72;;;2.75;;
49840;SDS011;35738;49.890;5.930;2023-05-19T05:18:40;5.50;;;2.58;;
49840;SDS011;35738;49.890;5.930;2023-05-19T05:21:10;5.93;;;3.20;;
49840;SDS011;35738;49.890;5.930;2023-05-19T05:23:39;5.05;;;2.70;;
49840;SDS011;35738;49.890;5.930;2023-05-19T05:26:11;6.30;;;2.47;;
49840;SDS011;35738;49.890;5.930;2023-05-19T05:28:44;6.32;;;2.65;;
49840;SDS011;35738;49.890;5.930;2023-05-19T05:31:11;5.55;;;2.47;;
49840;SDS011;35738;49.890;5.930;2023-05-19T05:33:37;6.53;;;2.65;;
49840;SDS011;35738;49.890;5.930;2023-05-19T05:36:04;6.05;;;2.60;;
49840;SDS011;35738;49.890;5.930;2023-05-19T05:38:31;6.07;;;2.15;;
49840;SDS011;35738;49.890;5.930;2023-05-19T05:40:58;8.68;;;2.53;;
49840;SDS011;35738;49.890;5.930;2023-05-19T05:43:26;5.63;;;2.63;;
49840;SDS011;35738;49.890;5.930;2023-05-19T05:45:52;5.55;;;2.30;;
49840;SDS011;35738;49.890;5.930;2023-05-19T05:48:19;4.03;;;2.50;;
49840;SDS011;35738;49.890;5.930;2023-05-19T05:50:46;6.13;;;2.30;;
49840;SDS011;35738;49.890;5.930;2023-05-19T05:53:17;5.18;;;2.50;;
49840;SDS011;35738;49.890;5.930;2023-05-19T05:55:46;6.30;;;1.98;;
49840;SDS011;35738;49.890;5.930;2023-05-19T05:58:13;3.88;;;2.08;;
49840;SDS011;35738;49.890;5.930;2023-05-19T06:00:41;5.07;;;2.08;;
49840;SDS011;35738;49.890;5.930;2023-05-19T06:03:13;5.70;;;2.38;;
49840;SDS011;35738;49.890;5.930;2023-05-19T06:05:42;5.57;;;2.00;;
49840;SDS011;35738;49.890;5.930;2023-05-19T06:08:08;4.63;;;2.22;;
49840;SDS011;35738;49.890;5.930;2023-05-19T06:10:35;6.20;;;2.40;;
49840;SDS011;35738;49.890;5.930;2023-05-19T06:13:03;5.43;;;2.25;;
49840;SDS011;35738;49.890;5.930;2023-05-19T06:15:30;4.13;;;2.15;;
49840;SDS011;35738;49.890;5.930;2023-05-19T06:17:57;6.03;;;2.00;;
49840;SDS011;35738;49.890;5.930;2023-05-19T06:20:24;3.55;;;1.75;;
49840;SDS011;35738;49.890;5.930;2023-05-19T06:22:51;4.72;;;2.22;;
49840;SDS011;35738;49.890;5.930;2023-05-19T06:25:18;4.97;;;1.90;;
49840;SDS011;35738;49.890;5.930;2023-05-19T06:27:45;7.85;;;2.10;;
49840;SDS011;35738;49.890;5.930;2023-05-19T06:30:12;8.38;;;2.30;;
49840;SDS011;35738;49.890;5.930;2023-05-19T06:32:39;6.00;;;2.35;;
49840;SDS011;35738;49.890;5.930;2023-05-19T06:35:06;4.82;;;1.90;;
49840;SDS011;35738;49.890;5.930;2023-05-19T06:37:32;3.03;;;1.95;;
49840;SDS011;35738;49.890;5.930;2023-05-19T06:39:59;5.30;;;2.10;;
49840;SDS011;35738;49.890;5.930;2023-05-19T06:42:26;5.13;;;1.88;;
49840;SDS011;35738;49.890;5.930;2023-05-19T06:44:52;4.20;;;1.80;;
49840;SDS011;35738;49.890;5.930;2023-05-19T06:47:22;7.43;;;2.17;;
49840;SDS011;35738;49.890;5.930;2023-05-19T06:49:49;5.05;;;1.90;;
49840;SDS011;35738;49.890;5.930;2023-05-19T06:52:20;5.60;;;2.50;;
49840;SDS011;35738;49.890;5.930;2023-05-19T06:54:47;5.57;;;1.90;;
49840;SDS011;35738;49.890;5.930;2023-05-19T06:57:16;5.13;;;2.17;;
49840;SDS011;35738;49.890;5.930;2023-05-19T06:59:42;2.97;;;1.92;;
49840;SDS011;35738;49.890;5.930;2023-05-19T07:02:11;5.10;;;2.30;;
49840;SDS011;35738;49.890;5.930;2023-05-19T07:04:38;3.97;;;2.00;;
49840;SDS011;35738;49.890;5.930;2023-05-19T07:07:05;4.95;;;2.20;;
49840;SDS011;35738;49.890;5.930;2023-05-19T07:09:31;3.70;;;2.00;;
49840;SDS011;35738;49.890;5.930;2023-05-19T07:11:58;5.05;;;1.80;;
49840;SDS011;35738;49.890;5.930;2023-05-19T07:14:25;5.25;;;2.15;;
49840;SDS011;35738;49.890;5.930;2023-05-19T07:16:52;3.47;;;1.95;;
49840;SDS011;35738;49.890;5.930;2023-05-19T07:19:18;4.60;;;1.90;;
49840;SDS011;35738;49.890;5.930;2023-05-19T07:21:45;3.15;;;1.85;;
49840;SDS011;35738;49.890;5.930;2023-05-19T07:24:12;5.00;;;1.85;;
49840;SDS011;35738;49.890;5.930;2023-05-19T07:26:39;5.72;;;1.70;;
49840;SDS011;35738;49.890;5.930;2023-05-19T07:29:06;3.75;;;1.90;;
49840;SDS011;35738;49.890;5.930;2023-05-19T07:31:33;4.07;;;1.80;;
49840;SDS011;35738;49.890;5.930;2023-05-19T07:33:59;3.95;;;1.83;;
49840;SDS011;35738;49.890;5.930;2023-05-19T07:36:26;3.80;;;1.95;;
49840;SDS011;35738;49.890;5.930;2023-05-19T07:38:53;4.60;;;2.15;;
49840;SDS011;35738;49.890;5.930;2023-05-19T07:41:19;6.70;;;2.00;;
49840;SDS011;35738;49.890;5.930;2023-05-19T07:43:50;4.03;;;1.90;;
49840;SDS011;35738;49.890;5.930;2023-05-19T07:46:16;6.20;;;2.08;;
49840;SDS011;35738;49.890;5.930;2023-05-19T07:48:43;4.43;;;1.80;;
49840;SDS011;35738;49.890;5.930;2023-05-19T07:53:37;4.45;;;2.00;;
49840;SDS011;35738;49.890;5.930;2023-05-19T07:56:04;3.47;;;1.98;;
49840;SDS011;35738;49.890;5.930;2023-05-19T07:58:31;5.78;;;2.10;;
49840;SDS011;35738;49.890;5.930;2023-05-19T08:00:58;6.30;;;1.98;;
49840;SDS011;35738;49.890;5.930;2023-05-19T08:03:25;6.25;;;2.10;;
49840;SDS011;35738;49.890;5.930;2023-05-19T08:05:52;6.72;;;2.20;;
49840;SDS011;35738;49.890;5.930;2023-05-19T08:08:19;4.43;;;1.83;;
49840;SDS011;35738;49.890;5.930;2023-05-19T08:10:47;3.92;;;1.75;;
49840;SDS011;35738;49.890;5.930;2023-05-19T08:13:13;3.95;;;1.80;;
49840;SDS011;35738;49.890;5.930;2023-05-19T08:15:40;6.70;;;2.05;;
49840;SDS011;35738;49.890;5.930;2023-05-19T08:18:06;5.10;;;2.30;;
49840;SDS011;35738;49.890;5.930;2023-05-19T08:20:33;6.70;;;1.90;;
49840;SDS011;35738;49.890;5.930;2023-05-19T08:23:01;4.13;;;2.05;;
49840;SDS011;35738;49.890;5.930;2023-05-19T08:25:27;6.18;;;2.10;;
49840;SDS011;35738;49.890;5.930;2023-05-19T08:27:54;4.20;;;2.00;;
49840;SDS011;35738;49.890;5.930;2023-05-19T08:30:20;4.93;;;2.17;;
49840;SDS011;35738;49.890;5.930;2023-05-19T08:32:47;10.30;;;2.60;;
49840;SDS011;35738;49.890;5.930;2023-05-19T08:35:14;3.97;;;2.00;;
49840;SDS011;35738;49.890;5.930;2023-05-19T08:37:41;5.70;;;2.03;;
49840;SDS011;35738;49.890;5.930;2023-05-19T08:40:09;4.50;;;1.90;;
49840;SDS011;35738;49.890;5.930;2023-05-19T08:42:41;4.28;;;2.17;;
49840;SDS011;35738;49.890;5.930;2023-05-19T08:45:08;4.28;;;1.90;;
49840;SDS011;35738;49.890;5.930;2023-05-19T08:47:35;6.10;;;1.73;;
49840;SDS011;35738;49.890;5.930;2023-05-19T08:50:05;4.10;;;1.80;;
49840;SDS011;35738;49.890;5.930;2023-05-19T08:55:32;9.82;;;2.35;;
49840;SDS011;35738;49.890;5.930;2023-05-19T08:58:02;5.53;;;2.00;;
49840;SDS011;35738;49.890;5.930;2023-05-19T09:00:30;5.10;;;1.90;;
49840;SDS011;35738;49.890;5.930;2023-05-19T09:02:59;7.50;;;1.90;;
49840;SDS011;35738;49.890;5.930;2023-05-19T09:05:43;5.13;;;2.00;;
49840;SDS011;35738;49.890;5.930;2023-05-19T09:08:13;5.68;;;2.03;;
49840;SDS011;35738;49.890;5.930;2023-05-19T09:10:39;8.80;;;2.28;;
49840;SDS011;35738;49.890;5.930;2023-05-19T09:13:06;4.80;;;1.65;;
49840;SDS011;35738;49.890;5.930;2023-05-19T09:15:33;6.28;;;2.03;;
49840;SDS011;35738;49.890;5.930;2023-05-19T09:18:08;5.82;;;1.85;;
49840;SDS011;35738;49.890;5.930;2023-05-19T09:20:40;4.60;;;2.05;;
49840;SDS011;35738;49.890;5.930;2023-05-19T09:23:12;4.18;;;1.98;;
49840;SDS011;35738;49.890;5.930;2023-05-19T09:25:49;6.50;;;2.60;;
49840;SDS011;35738;49.890;5.930;2023-05-19T09:28:26;6.03;;;2.10;;
49840;SDS011;35738;49.890;5.930;2023-05-19T09:33:25;5.60;;;1.83;;
49840;SDS011;35738;49.890;5.930;2023-05-19T09:35:53;5.80;;;1.77;;
49840;SDS011;35738;49.890;5.930;2023-05-19T09:38:27;5.55;;;2.08;;
49840;SDS011;35738;49.890;5.930;2023-05-19T09:40:55;4.82;;;1.80;;
49840;SDS011;35738;49.890;5.930;2023-05-19T09:43:23;4.88;;;2.03;;
49840;SDS011;35738;49.890;5.930;2023-05-19T09:45:59;5.90;;;1.73;;
49840;SDS011;35738;49.890;5.930;2023-05-19T09:48:28;3.75;;;1.75;;
49840;SDS011;35738;49.890;5.930;2023-05-19T09:50:55;6.45;;;2.33;;
49840;SDS011;35738;49.890;5.930;2023-05-19T09:53:23;3.00;;;2.00;;
49840;SDS011;35738;49.890;5.930;2023-05-19T09:55:53;4.10;;;1.80;;
49840;SDS011;35738;49.890;5.930;2023-05-19T09:58:24;5.00;;;2.15;;
49840;SDS011;35738;49.890;5.930;2023-05-19T10:00:52;6.15;;;1.80;;
49840;SDS011;35738;49.890;5.930;2023-05-19T10:03:22;4.50;;;2.08;;
49840;SDS011;35738;49.890;5.930;2023-05-19T10:05:51;3.95;;;1.83;;
49840;SDS011;35738;49.890;5.930;2023-05-19T10:08:18;3.83;;;2.13;;
49840;SDS011;35738;49.890;5.930;2023-05-19T10:10:46;5.10;;;2.10;;
49840;SDS011;35738;49.890;5.930;2023-05-19T10:13:13;4.47;;;2.15;;
49840;SDS011;35738;49.890;5.930;2023-05-19T10:15:41;5.32;;;2.15;;
49840;SDS011;35738;49.890;5.930;2023-05-19T10:18:24;4.88;;;2.15;;
49840;SDS011;35738;49.890;5.930;2023-05-19T10:20:52;4.05;;;1.90;;
49840;SDS011;35738;49.890;5.930;2023-05-19T10:23:19;3.10;;;2.03;;
49840;SDS011;35738;49.890;5.930;2023-05-19T10:25:55;2.83;;;1.88;;
49840;SDS011;35738;49.890;5.930;2023-05-19T10:28:30;5.40;;;2.20;;
49840;SDS011;35738;49.890;5.930;2023-05-19T10:31:05;3.67;;;2.00;;
49840;SDS011;35738;49.890;5.930;2023-05-19T10:36:32;3.88;;;1.92;;
49840;SDS011;35738;49.890;5.930;2023-05-19T10:39:10;2.80;;;1.70;;
49840;SDS011;35738;49.890;5.930;2023-05-19T10:41:57;3.40;;;1.80;;
49840;SDS011;35738;49.890;5.930;2023-05-19T10:47:28;5.47;;;1.88;;
49840;SDS011;35738;49.890;5.930;2023-05-19T10:49:55;4.68;;;2.03;;
49840;SDS011;35738;49.890;5.930;2023-05-19T10:52:25;4.15;;;1.90;;
49840;SDS011;35738;49.890;5.930;2023-05-19T10:54:55;3.97;;;2.10;;
49840;SDS011;35738;49.890;5.930;2023-05-19T10:57:24;4.28;;;2.00;;
49840;SDS011;35738;49.890;5.930;2023-05-19T10:59:57;6.40;;;2.10;;
49840;SDS011;35738;49.890;5.930;2023-05-19T11:02:39;4.95;;;2.00;;
49840;SDS011;35738;49.890;5.930;2023-05-19T11:05:12;4.43;;;1.98;;
49840;SDS011;35738;49.890;5.930;2023-05-19T11:07:42;10.35;;;2.50;;
49840;SDS011;35738;49.890;5.930;2023-05-19T11:10:10;7.03;;;2.20;;
49840;SDS011;35738;49.890;5.930;2023-05-19T11:12:40;4.75;;;2.05;;
49840;SDS011;35738;49.890;5.930;2023-05-19T11:15:15;7.07;;;2.05;;
49840;SDS011;35738;49.890;5.930;2023-05-19T11:17:44;4.57;;;2.17;;
49840;SDS011;35738;49.890;5.930;2023-05-19T11:20:26;5.50;;;2.13;;
49840;SDS011;35738;49.890;5.930;2023-05-19T11:23:07;6.20;;;2.20;;
49840;SDS011;35738;49.890;5.930;2023-05-19T11:25:48;5.47;;;2.30;;
49840;SDS011;35738;49.890;5.930;2023-05-19T11:28:21;4.47;;;2.10;;
49840;SDS011;35738;49.890;5.930;2023-05-19T11:30:55;5.35;;;2.03;;
49840;SDS011;35738;49.890;5.930;2023-05-19T11:33:24;6.38;;;2.28;;
49840;SDS011;35738;49.890;5.930;2023-05-19T11:35:55;5.68;;;2.03;;
49840;SDS011;35738;49.890;5.930;2023-05-19T11:38:25;6.20;;;2.30;;
49840;SDS011;35738;49.890;5.930;2023-05-19T11:40:53;2.58;;;2.00;;
49840;SDS011;35738;49.890;5.930;2023-05-19T11:43:25;4.97;;;2.20;;
49840;SDS011;35738;49.890;5.930;2023-05-19T11:45:52;4.03;;;1.95;;
49840;SDS011;35738;49.890;5.930;2023-05-19T11:48:19;4.13;;;1.90;;
49840;SDS011;35738;49.890;5.930;2023-05-19T11:50:46;4.68;;;2.10;;
49840;SDS011;35738;49.890;5.930;2023-05-19T11:53:13;4.32;;;1.90;;
49840;SDS011;35738;49.890;5.930;2023-05-19T11:55:44;5.90;;;1.85;;
49840;SDS011;35738;49.890;5.930;2023-05-19T11:58:12;4.93;;;2.00;;
49840;SDS011;35738;49.890;5.930;2023-05-19T12:00:39;3.47;;;1.70;;
49840;SDS011;35738;49.890;5.930;2023-05-19T12:03:11;4.00;;;2.00;;
49840;SDS011;35738;49.890;5.930;2023-05-19T12:05:39;3.47;;;1.90;;
49840;SDS011;35738;49.890;5.930;2023-05-19T12:08:11;2.58;;;2.00;;
49840;SDS011;35738;49.890;5.930;2023-05-19T12:10:38;5.35;;;1.98;;
49840;SDS011;35738;49.890;5.930;2023-05-19T12:13:05;4.80;;;2.10;;
49840;SDS011;35738;49.890;5.930;2023-05-19T12:15:36;4.47;;;2.13;;
49840;SDS011;35738;49.890;5.930;2023-05-19T12:18:04;7.40;;;2.60;;
49840;SDS011;35738;49.890;5.930;2023-05-19T12:20:30;5.15;;;2.20;;
49840;SDS011;35738;49.890;5.930;2023-05-19T12:22:58;3.88;;;1.90;;
49840;SDS011;35738;49.890;5.930;2023-05-19T12:25:26;4.40;;;1.83;;
49840;SDS011;35738;49.890;5.930;2023-05-19T12:27:57;3.88;;;1.90;;
49840;SDS011;35738;49.890;5.930;2023-05-19T12:30:26;4.07;;;2.03;;
49840;SDS011;35738;49.890;5.930;2023-05-19T12:32:54;3.97;;;1.95;;
49840;SDS011;35738;49.890;5.930;2023-05-19T12:35:28;5.25;;;1.90;;
49840;SDS011;35738;49.890;5.930;2023-05-19T12:38:00;4.32;;;1.90;;
49840;SDS011;35738;49.890;5.930;2023-05-19T12:40:28;4.80;;;1.90;;
49840;SDS011;35738;49.890;5.930;2023-05-19T12:42:55;4.65;;;2.10;;
49840;SDS011;35738;49.890;5.930;2023-05-19T12:45:24;3.00;;;1.75;;
49840;SDS011;35738;49.890;5.930;2023-05-19T12:47:53;5.45;;;2.45;;
49840;SDS011;35738;49.890;5.930;2023-05-19T12:50:20;5.28;;;2.03;;
49840;SDS011;35738;49.890;5.930;2023-05-19T12:52:47;3.70;;;2.08;;
49840;SDS011;35738;49.890;5.930;2023-05-19T12:55:18;5.45;;;2.10;;
49840;SDS011;35738;49.890;5.930;2023-05-19T12:57:50;6.43;;;1.80;;
49840;SDS011;35738;49.890;5.930;2023-05-19T13:00:20;5.07;;;1.95;;
49840;SDS011;35738;49.890;5.930;2023-05-19T13:05:32;3.75;;;1.80;;
49840;SDS011;35738;49.890;5.930;2023-05-19T13:08:06;5.53;;;1.80;;
49840;SDS011;35738;49.890;5.930;2023-05-19T13:10:37;3.50;;;1.98;;
49840;SDS011;35738;49.890;5.930;2023-05-19T13:13:05;3.28;;;1.90;;
49840;SDS011;35738;49.890;5.930;2023-05-19T13:15:35;6.97;;;1.73;;
49840;SDS011;35738;49.890;5.930;2023-05-19T13:18:05;5.10;;;1.90;;
49840;SDS011;35738;49.890;5.930;2023-05-19T13:20:34;3.03;;;1.83;;
49840;SDS011;35738;49.890;5.930;2023-05-19T13:23:02;3.45;;;2.10;;
49840;SDS011;35738;49.890;5.930;2023-05-19T13:25:30;5.07;;;1.88;;
49840;SDS011;35738;49.890;5.930;2023-05-19T13:28:06;4.03;;;2.00;;
49840;SDS011;35738;49.890;5.930;2023-05-19T13:30:33;8.07;;;2.53;;
49840;SDS011;35738;49.890;5.930;2023-05-19T13:33:01;3.60;;;1.98;;
49840;SDS011;35738;49.890;5.930;2023-05-19T13:35:28;4.43;;;2.00;;
49840;SDS011;35738;49.890;5.930;2023-05-19T13:37:55;5.85;;;1.92;;
49840;SDS011;35738;49.890;5.930;2023-05-19T13:40:22;8.93;;;2.00;;
49840;SDS011;35738;49.890;5.930;2023-05-19T13:42:49;4.10;;;2.03;;
49840;SDS011;35738;49.890;5.930;2023-05-19T13:45:16;5.57;;;2.22;;
49840;SDS011;35738;49.890;5.930;2023-05-19T13:47:43;4.82;;;2.20;;
49840;SDS011;35738;49.890;5.930;2023-05-19T13:50:10;3.67;;;2.00;;
49840;SDS011;35738;49.890;5.930;2023-05-19T13:52:37;3.80;;;1.85;;
49840;SDS011;35738;49.890;5.930;2023-05-19T13:55:04;4.15;;;2.00;;
49840;SDS011;35738;49.890;5.930;2023-05-19T13:57:32;2.53;;;2.15;;
49840;SDS011;35738;49.890;5.930;2023-05-19T13:59:59;5.90;;;2.10;;
49840;SDS011;35738;49.890;5.930;2023-05-19T14:02:29;3.72;;;1.98;;
49840;SDS011;35738;49.890;5.930;2023-05-19T14:04:56;4.00;;;2.10;;
49840;SDS011;35738;49.890;5.930;2023-05-19T14:07:22;3.60;;;1.92;;
49840;SDS011;35738;49.890;5.930;2023-05-19T14:09:50;3.88;;;2.00;;
49840;SDS011;35738;49.890;5.930;2023-05-19T14:12:17;6.10;;;2.15;;
49840;SDS011;35738;49.890;5.930;2023-05-19T14:14:48;4.18;;;1.95;;
49840;SDS011;35738;49.890;5.930;2023-05-19T14:17:15;2.70;;;1.90;;
49840;SDS011;35738;49.890;5.930;2023-05-19T14:19:41;3.78;;;1.90;;
49840;SDS011;35738;49.890;5.930;2023-05-19T14:22:08;4.65;;;1.98;;
49840;SDS011;35738;49.890;5.930;2023-05-19T14:24:35;3.45;;;2.00;;
49840;SDS011;35738;49.890;5.930;2023-05-19T14:27:03;6.10;;;2.00;;
49840;SDS011;35738;49.890;5.930;2023-05-19T14:29:29;5.18;;;2.10;;
49840;SDS011;35738;49.890;5.930;2023-05-19T14:31:56;4.05;;;2.00;;
49840;SDS011;35738;49.890;5.930;2023-05-19T14:34:23;5.25;;;1.90;;
49840;SDS011;35738;49.890;5.930;2023-05-19T14:36:50;4.57;;;2.00;;
49840;SDS011;35738;49.890;5.930;2023-05-19T14:39:17;5.80;;;1.98;;
49840;SDS011;35738;49.890;5.930;2023-05-19T14:41:44;6.72;;;2.22;;
49840;SDS011;35738;49.890;5.930;2023-05-19T14:44:12;3.25;;;1.60;;
49840;SDS011;35738;49.890;5.930;2023-05-19T14:46:38;5.38;;;1.90;;
49840;SDS011;35738;49.890;5.930;2023-05-19T14:49:05;5.70;;;2.22;;
49840;SDS011;35738;49.890;5.930;2023-05-19T14:51:32;2.20;;;1.63;;
49840;SDS011;35738;49.890;5.930;2023-05-19T14:53:59;4.18;;;2.40;;
49840;SDS011;35738;49.890;5.930;2023-05-19T14:56:27;3.95;;;1.73;;
49840;SDS011;35738;49.890;5.930;2023-05-19T14:58:54;2.63;;;1.75;;
49840;SDS011;35738;49.890;5.930;2023-05-19T15:01:21;2.55;;;1.60;;
49840;SDS011;35738;49.890;5.930;2023-05-19T15:03:48;4.75;;;1.90;;
49840;SDS011;35738;49.890;5.930;2023-05-19T15:06:14;4.95;;;1.83;;
49840;SDS011;35738;49.890;5.930;2023-05-19T15:08:41;3.92;;;2.00;;
49840;SDS011;35738;49.890;5.930;2023-05-19T15:11:08;3.45;;;1.85;;
49840;SDS011;35738;49.890;5.930;2023-05-19T15:13:34;7.43;;;2.10;;
49840;SDS011;35738;49.890;5.930;2023-05-19T15:16:01;5.00;;;2.03;;
49840;SDS011;35738;49.890;5.930;2023-05-19T15:18:43;2.75;;;1.77;;
49840;SDS011;35738;49.890;5.930;2023-05-19T15:21:09;4.45;;;2.00;;
49840;SDS011;35738;49.890;5.930;2023-05-19T15:23:36;4.43;;;1.95;;
49840;SDS011;35738;49.890;5.930;2023-05-19T15:26:02;3.50;;;1.80;;